Billings, MT (59101)

9:23 AM MST on December 06, 2016 (GMT -0700)
Jupiter Sulphur | | Change Station

Elev 3114 ft 45.78 °N, 108.49 °W | Updated 10 minutes ago

Light Snow
Light Snow
12.4 °F
Feels Like 4 °F
N
5.0
Wind Variable Wind from SSW
Gusts 8.0 mph

Today
High -- | Low -- °F
--% Chance of Precip.
Yesterday
High -- | Low -- °F
Precip. -- in
Pressure 30.25 in
Visibility 10.0 miles
Clouds Mostly Cloudy 1500 ft
Overcast 4000 ft
Windchill 4 °F
Dew Point 6 °F
Humidity 74%
Rainfall 0.00 in
Snow Depth Not available.
7:40 AM 4:29 PM
Waxing Crescent, 43% visible
METAR KBIL 061553Z 02005KT 10SM -SN BKN015 OVC040 M13/M16 A3006 RMK AO2 SNB21 SLP243 P0000 T11281156
Pressure 30.25 in
Visibility 10.0 miles
Clouds Mostly Cloudy 1500 ft
Overcast 4000 ft
Windchill 4 °F
Dew Point 6 °F
Humidity 74%
Rainfall 0.00 in
Snow Depth Not available.
7:40 AM 4:29 PM
Waxing Crescent, 43% visible
METAR KBIL 061553Z 02005KT 10SM -SN BKN015 OVC040 M13/M16 A3006 RMK AO2 SNB21 SLP243 P0000 T11281156

10-Day Weather Forecast

Almanac

Astronomy

Dec. 06, 2016 Rise Set
Actual Time
Civil Twilight
Nautical Twilight
Astronomical Twilight
Moon
Length of Visible Light
Length of Day
Tomorrow will be .
, % of the Moon is Illuminated

Today's Extremes

State Highs State Lows

Community

WunderPhotos

Upload Photos

1,955,976 photos uploaded!

WunderBlog® & News

Nearby

Air Quality

  Air Quality AQ Index Pollutant
Not available.

Snow Depth

Station Depth Elevation

Earthquake Activity

City Distance Mag. Time & Date
Minimum magnitude displayed is 2.5.

Coastal Water Temperatures

Place Temperature

Stations

Nearby Weather Stations

Station Location Temp. Windchill Dew Point Humidity Wind Precip. Elev Updated Type
                   

Watches & Warnings

There are currently no watches in effect.